sensor_id;sensor_type;location;lat;lon;timestamp;temperature;humidity
11426;DHT22;5769;47.998;7.788;2022-12-18T00:02:13;18.70;60.00
11426;DHT22;5769;47.998;7.788;2022-12-18T00:04:40;18.70;60.00
11426;DHT22;5769;47.998;7.788;2022-12-18T00:07:08;18.70;60.10
11426;DHT22;5769;47.998;7.788;2022-12-18T00:09:35;18.70;60.10
11426;DHT22;5769;47.998;7.788;2022-12-18T00:12:02;18.70;60.10
11426;DHT22;5769;47.998;7.788;2022-12-18T00:14:29;18.70;60.00
11426;DHT22;5769;47.998;7.788;2022-12-18T00:16:55;18.70;59.90
11426;DHT22;5769;47.998;7.788;2022-12-18T00:19:23;18.70;59.90
11426;DHT22;5769;47.998;7.788;2022-12-18T00:21:50;18.70;59.90
11426;DHT22;5769;47.998;7.788;2022-12-18T00:24:18;18.70;60.10
11426;DHT22;5769;47.998;7.788;2022-12-18T00:26:45;18.70;59.90
11426;DHT22;5769;47.998;7.788;2022-12-18T00:29:13;18.70;60.00
11426;DHT22;5769;47.998;7.788;2022-12-18T00:31:40;18.70;59.90
11426;DHT22;5769;47.998;7.788;2022-12-18T00:34:10;18.70;59.90
11426;DHT22;5769;47.998;7.788;2022-12-18T00:36:37;18.70;60.00
11426;DHT22;5769;47.998;7.788;2022-12-18T00:39:05;18.70;59.90
11426;DHT22;5769;47.998;7.788;2022-12-18T00:41:33;18.60;59.90
11426;DHT22;5769;47.998;7.788;2022-12-18T00:44:18;18.70;60.00
11426;DHT22;5769;47.998;7.788;2022-12-18T00:46:45;18.70;59.90
11426;DHT22;5769;47.998;7.788;2022-12-18T00:49:12;18.70;59.90
11426;DHT22;5769;47.998;7.788;2022-12-18T00:51:39;18.70;60.00
11426;DHT22;5769;47.998;7.788;2022-12-18T00:54:06;18.60;59.80
11426;DHT22;5769;47.998;7.788;2022-12-18T00:56:37;18.70;59.90
11426;DHT22;5769;47.998;7.788;2022-12-18T00:59:04;18.60;59.90
11426;DHT22;5769;47.998;7.788;2022-12-18T01:01:31;18.70;59.90
11426;DHT22;5769;47.998;7.788;2022-12-18T01:03:58;18.70;59.90
11426;DHT22;5769;47.998;7.788;2022-12-18T01:06:25;18.70;59.90
11426;DHT22;5769;47.998;7.788;2022-12-18T01:08:52;18.70;59.90
11426;DHT22;5769;47.998;7.788;2022-12-18T01:11:20;18.70;59.90
11426;DHT22;5769;47.998;7.788;2022-12-18T01:13:48;18.70;59.80
11426;DHT22;5769;47.998;7.788;2022-12-18T01:16:16;18.70;59.90
11426;DHT22;5769;47.998;7.788;2022-12-18T01:18:43;18.70;59.90
11426;DHT22;5769;47.998;7.788;2022-12-18T01:21:13;18.70;59.90
11426;DHT22;5769;47.998;7.788;2022-12-18T01:23:40;18.70;59.80
11426;DHT22;5769;47.998;7.788;2022-12-18T01:26:10;18.70;59.80
11426;DHT22;5769;47.998;7.788;2022-12-18T01:28:37;18.70;59.80
11426;DHT22;5769;47.998;7.788;2022-12-18T01:31:14;18.70;59.80
11426;DHT22;5769;47.998;7.788;2022-12-18T01:33:41;18.70;59.90
11426;DHT22;5769;47.998;7.788;2022-12-18T01:36:08;18.70;59.90
11426;DHT22;5769;47.998;7.788;2022-12-18T01:38:35;18.70;59.90
11426;DHT22;5769;47.998;7.788;2022-12-18T01:41:02;18.60;59.90
11426;DHT22;5769;47.998;7.788;2022-12-18T01:43:43;18.70;59.90
11426;DHT22;5769;47.998;7.788;2022-12-18T01:46:09;18.70;59.80
11426;DHT22;5769;47.998;7.788;2022-12-18T01:48:38;18.70;59.70
11426;DHT22;5769;47.998;7.788;2022-12-18T01:51:08;18.70;59.70
11426;DHT22;5769;47.998;7.788;2022-12-18T01:53:36;18.60;59.70
11426;DHT22;5769;47.998;7.788;2022-12-18T01:56:04;18.70;60.00
11426;DHT22;5769;47.998;7.788;2022-12-18T01:58:37;18.70;59.90
11426;DHT22;5769;47.998;7.788;2022-12-18T02:01:06;18.70;59.90
11426;DHT22;5769;47.998;7.788;2022-12-18T02:03:33;18.70;59.90
11426;DHT22;5769;47.998;7.788;2022-12-18T02:06:07;18.70;59.80
11426;DHT22;5769;47.998;7.788;2022-12-18T02:08:40;18.70;59.90
11426;DHT22;5769;47.998;7.788;2022-12-18T02:11:12;18.60;59.70
11426;DHT22;5769;47.998;7.788;2022-12-18T02:13:46;18.60;59.70
11426;DHT22;5769;47.998;7.788;2022-12-18T02:16:21;18.70;59.80
11426;DHT22;5769;47.998;7.788;2022-12-18T02:18:54;18.70;59.80
11426;DHT22;5769;47.998;7.788;2022-12-18T02:21:32;18.60;59.70
11426;DHT22;5769;47.998;7.788;2022-12-18T02:24:13;18.70;60.00
11426;DHT22;5769;47.998;7.788;2022-12-18T02:26:48;18.60;59.80
11426;DHT22;5769;47.998;7.788;2022-12-18T02:29:20;18.70;59.80
11426;DHT22;5769;47.998;7.788;2022-12-18T02:31:51;18.70;59.70
11426;DHT22;5769;47.998;7.788;2022-12-18T02:34:19;18.70;59.70
11426;DHT22;5769;47.998;7.788;2022-12-18T02:36:49;18.60;59.70
11426;DHT22;5769;47.998;7.788;2022-12-18T02:39:18;18.70;59.80
11426;DHT22;5769;47.998;7.788;2022-12-18T02:41:48;18.60;59.70
11426;DHT22;5769;47.998;7.788;2022-12-18T02:44:15;18.60;59.70
11426;DHT22;5769;47.998;7.788;2022-12-18T02:46:43;18.60;59.70
11426;DHT22;5769;47.998;7.788;2022-12-18T02:49:24;18.60;59.60
11426;DHT22;5769;47.998;7.788;2022-12-18T02:51:54;18.70;59.70
11426;DHT22;5769;47.998;7.788;2022-12-18T02:54:34;18.60;59.60
11426;DHT22;5769;47.998;7.788;2022-12-18T02:57:11;18.70;59.70
11426;DHT22;5769;47.998;7.788;2022-12-18T02:59:45;18.60;59.80
11426;DHT22;5769;47.998;7.788;2022-12-18T03:02:18;18.60;59.70
11426;DHT22;5769;47.998;7.788;2022-12-18T03:04:49;18.70;59.80
11426;DHT22;5769;47.998;7.788;2022-12-18T03:07:23;18.60;59.60
11426;DHT22;5769;47.998;7.788;2022-12-18T03:09:50;18.60;59.70
11426;DHT22;5769;47.998;7.788;2022-12-18T03:12:22;18.60;59.60
11426;DHT22;5769;47.998;7.788;2022-12-18T03:14:57;18.60;59.70
11426;DHT22;5769;47.998;7.788;2022-12-18T03:17:27;18.70;59.80
11426;DHT22;5769;47.998;7.788;2022-12-18T03:19:58;18.60;59.60
11426;DHT22;5769;47.998;7.788;2022-12-18T03:22:27;18.60;59.80
11426;DHT22;5769;47.998;7.788;2022-12-18T03:24:56;18.60;59.70
11426;DHT22;5769;47.998;7.788;2022-12-18T03:27:26;18.60;59.70
11426;DHT22;5769;47.998;7.788;2022-12-18T03:29:58;18.60;59.60
11426;DHT22;5769;47.998;7.788;2022-12-18T03:32:35;18.60;59.60
11426;DHT22;5769;47.998;7.788;2022-12-18T03:35:06;18.60;59.70
11426;DHT22;5769;47.998;7.788;2022-12-18T03:37:34;18.60;59.70
11426;DHT22;5769;47.998;7.788;2022-12-18T03:40:01;18.60;59.80
11426;DHT22;5769;47.998;7.788;2022-12-18T03:42:35;18.60;59.90
11426;DHT22;5769;47.998;7.788;2022-12-18T03:45:10;18.60;59.80
11426;DHT22;5769;47.998;7.788;2022-12-18T03:47:43;18.70;59.90
11426;DHT22;5769;47.998;7.788;2022-12-18T03:50:20;18.70;59.90
11426;DHT22;5769;47.998;7.788;2022-12-18T03:52:52;18.60;59.80
11426;DHT22;5769;47.998;7.788;2022-12-18T03:55:21;18.60;59.70
11426;DHT22;5769;47.998;7.788;2022-12-18T03:57:50;18.60;59.70
11426;DHT22;5769;47.998;7.788;2022-12-18T04:00:19;18.60;59.90
11426;DHT22;5769;47.998;7.788;2022-12-18T04:02:50;18.60;59.70
11426;DHT22;5769;47.998;7.788;2022-12-18T04:05:19;18.60;59.70
11426;DHT22;5769;47.998;7.788;2022-12-18T04:07:47;18.60;59.60
11426;DHT22;5769;47.998;7.788;2022-12-18T04:10:16;18.60;59.80
11426;DHT22;5769;47.998;7.788;2022-12-18T04:12:43;18.60;59.60
11426;DHT22;5769;47.998;7.788;2022-12-18T04:15:12;18.60;59.70
11426;DHT22;5769;47.998;7.788;2022-12-18T04:17:46;18.60;59.70
11426;DHT22;5769;47.998;7.788;2022-12-18T04:20:13;18.60;59.70
11426;DHT22;5769;47.998;7.788;2022-12-18T04:22:40;18.60;59.80
11426;DHT22;5769;47.998;7.788;2022-12-18T04:25:08;18.60;59.70
11426;DHT22;5769;47.998;7.788;2022-12-18T04:27:34;18.60;59.80
11426;DHT22;5769;47.998;7.788;2022-12-18T04:30:01;18.60;59.80
11426;DHT22;5769;47.998;7.788;2022-12-18T04:32:29;18.60;59.70
11426;DHT22;5769;47.998;7.788;2022-12-18T04:34:56;18.60;59.80
11426;DHT22;5769;47.998;7.788;2022-12-18T04:37:23;18.60;59.70
11426;DHT22;5769;47.998;7.788;2022-12-18T04:39:49;18.60;59.70
11426;DHT22;5769;47.998;7.788;2022-12-18T04:42:16;18.60;59.80
11426;DHT22;5769;47.998;7.788;2022-12-18T04:44:43;18.60;59.70
11426;DHT22;5769;47.998;7.788;2022-12-18T04:47:10;18.60;59.80
11426;DHT22;5769;47.998;7.788;2022-12-18T04:49:38;18.60;59.80
11426;DHT22;5769;47.998;7.788;2022-12-18T04:52:04;18.50;59.70
11426;DHT22;5769;47.998;7.788;2022-12-18T04:54:34;18.60;59.70
11426;DHT22;5769;47.998;7.788;2022-12-18T04:57:01;18.60;59.70
11426;DHT22;5769;47.998;7.788;2022-12-18T04:59:28;18.60;59.70
11426;DHT22;5769;47.998;7.788;2022-12-18T05:01:54;18.60;59.80
11426;DHT22;5769;47.998;7.788;2022-12-18T05:04:21;18.60;59.80
11426;DHT22;5769;47.998;7.788;2022-12-18T05:06:49;18.60;59.80
11426;DHT22;5769;47.998;7.788;2022-12-18T05:09:16;18.60;59.80
11426;DHT22;5769;47.998;7.788;2022-12-18T05:11:42;18.60;59.80
11426;DHT22;5769;47.998;7.788;2022-12-18T05:14:09;18.60;59.80
11426;DHT22;5769;47.998;7.788;2022-12-18T05:16:36;18.60;59.80
11426;DHT22;5769;47.998;7.788;2022-12-18T05:19:02;18.60;59.80
11426;DHT22;5769;47.998;7.788;2022-12-18T05:21:29;18.60;59.80
11426;DHT22;5769;47.998;7.788;2022-12-18T05:23:57;18.60;59.80
11426;DHT22;5769;47.998;7.788;2022-12-18T05:26:24;18.60;59.70
11426;DHT22;5769;47.998;7.788;2022-12-18T05:28:51;18.60;59.60
11426;DHT22;5769;47.998;7.788;2022-12-18T05:31:18;18.60;59.70
11426;DHT22;5769;47.998;7.788;2022-12-18T05:33:44;18.60;59.60
11426;DHT22;5769;47.998;7.788;2022-12-18T05:36:11;18.60;59.70
11426;DHT22;5769;47.998;7.788;2022-12-18T05:38:39;18.60;59.70
11426;DHT22;5769;47.998;7.788;2022-12-18T05:41:07;18.60;59.70
11426;DHT22;5769;47.998;7.788;2022-12-18T05:43:35;18.60;59.70
11426;DHT22;5769;47.998;7.788;2022-12-18T05:46:04;18.60;59.70
11426;DHT22;5769;47.998;7.788;2022-12-18T05:48:32;18.60;59.60
11426;DHT22;5769;47.998;7.788;2022-12-18T05:51:04;18.60;59.60
11426;DHT22;5769;47.998;7.788;2022-12-18T05:53:31;18.60;59.60
11426;DHT22;5769;47.998;7.788;2022-12-18T05:56:00;18.60;59.60
11426;DHT22;5769;47.998;7.788;2022-12-18T05:58:29;18.50;59.60
11426;DHT22;5769;47.998;7.788;2022-12-18T06:00:56;18.60;59.60
11426;DHT22;5769;47.998;7.788;2022-12-18T06:03:24;18.60;59.60
11426;DHT22;5769;47.998;7.788;2022-12-18T06:05:51;18.50;59.60
11426;DHT22;5769;47.998;7.788;2022-12-18T06:08:17;18.60;59.50
11426;DHT22;5769;47.998;7.788;2022-12-18T06:10:50;18.50;59.50
11426;DHT22;5769;47.998;7.788;2022-12-18T06:13:17;18.60;59.70
11426;DHT22;5769;47.998;7.788;2022-12-18T06:15:45;18.60;59.70
11426;DHT22;5769;47.998;7.788;2022-12-18T06:18:12;18.50;59.50
11426;DHT22;5769;47.998;7.788;2022-12-18T06:20:39;18.60;59.60
11426;DHT22;5769;47.998;7.788;2022-12-18T06:23:07;18.60;59.70
11426;DHT22;5769;47.998;7.788;2022-12-18T06:25:37;18.60;59.50
11426;DHT22;5769;47.998;7.788;2022-12-18T06:28:04;18.60;59.60
11426;DHT22;5769;47.998;7.788;2022-12-18T06:30:31;18.60;59.60
11426;DHT22;5769;47.998;7.788;2022-12-18T06:32:59;18.50;59.60
11426;DHT22;5769;47.998;7.788;2022-12-18T06:35:26;18.60;59.60
11426;DHT22;5769;47.998;7.788;2022-12-18T06:37:52;18.50;59.40
11426;DHT22;5769;47.998;7.788;2022-12-18T06:40:19;18.60;59.60
11426;DHT22;5769;47.998;7.788;2022-12-18T06:42:46;18.60;59.50
11426;DHT22;5769;47.998;7.788;2022-12-18T06:45:16;18.50;60.20
11426;DHT22;5769;47.998;7.788;2022-12-18T06:47:42;18.50;59.40
11426;DHT22;5769;47.998;7.788;2022-12-18T06:50:12;18.50;59.40
11426;DHT22;5769;47.998;7.788;2022-12-18T06:52:38;18.60;59.50
11426;DHT22;5769;47.998;7.788;2022-12-18T06:55:08;18.50;59.60
11426;DHT22;5769;47.998;7.788;2022-12-18T06:57:35;18.50;59.50
11426;DHT22;5769;47.998;7.788;2022-12-18T07:00:04;18.50;59.40
11426;DHT22;5769;47.998;7.788;2022-12-18T07:02:32;18.60;59.60
11426;DHT22;5769;47.998;7.788;2022-12-18T07:04:59;18.60;59.50
11426;DHT22;5769;47.998;7.788;2022-12-18T07:07:28;18.60;59.50
11426;DHT22;5769;47.998;7.788;2022-12-18T07:09:54;18.60;59.50
11426;DHT22;5769;47.998;7.788;2022-12-18T07:12:21;18.60;59.50
11426;DHT22;5769;47.998;7.788;2022-12-18T07:14:48;18.50;59.50
11426;DHT22;5769;47.998;7.788;2022-12-18T07:17:14;18.50;59.40
11426;DHT22;5769;47.998;7.788;2022-12-18T07:19:41;18.50;59.40
11426;DHT22;5769;47.998;7.788;2022-12-18T07:22:08;18.60;59.60
11426;DHT22;5769;47.998;7.788;2022-12-18T07:24:36;18.60;59.50
11426;DHT22;5769;47.998;7.788;2022-12-18T07:27:03;18.60;59.40
11426;DHT22;5769;47.998;7.788;2022-12-18T07:29:29;18.60;59.40
11426;DHT22;5769;47.998;7.788;2022-12-18T07:31:56;18.50;59.30
11426;DHT22;5769;47.998;7.788;2022-12-18T07:34:23;18.60;59.50
11426;DHT22;5769;47.998;7.788;2022-12-18T07:36:49;18.50;59.40
11426;DHT22;5769;47.998;7.788;2022-12-18T07:39:16;18.50;59.30
11426;DHT22;5769;47.998;7.788;2022-12-18T07:41:44;18.60;59.40
11426;DHT22;5769;47.998;7.788;2022-12-18T07:44:31;18.50;59.30
11426;DHT22;5769;47.998;7.788;2022-12-18T07:46:57;18.60;59.50
11426;DHT22;5769;47.998;7.788;2022-12-18T07:49:24;18.50;59.50
11426;DHT22;5769;47.998;7.788;2022-12-18T07:51:51;18.60;59.30
11426;DHT22;5769;47.998;7.788;2022-12-18T07:54:19;18.60;59.40
11426;DHT22;5769;47.998;7.788;2022-12-18T07:56:47;18.50;59.30
11426;DHT22;5769;47.998;7.788;2022-12-18T07:59:14;18.60;59.20
11426;DHT22;5769;47.998;7.788;2022-12-18T08:01:41;18.50;59.30
11426;DHT22;5769;47.998;7.788;2022-12-18T08:04:08;18.50;59.20
11426;DHT22;5769;47.998;7.788;2022-12-18T08:06:34;18.50;59.20
11426;DHT22;5769;47.998;7.788;2022-12-18T08:09:01;18.50;59.20
11426;DHT22;5769;47.998;7.788;2022-12-18T08:11:28;18.50;59.20
11426;DHT22;5769;47.998;7.788;2022-12-18T08:13:57;18.50;59.20
11426;DHT22;5769;47.998;7.788;2022-12-18T08:16:24;18.50;59.20
11426;DHT22;5769;47.998;7.788;2022-12-18T08:18:52;18.50;59.20
11426;DHT22;5769;47.998;7.788;2022-12-18T08:21:19;18.60;59.20
11426;DHT22;5769;47.998;7.788;2022-12-18T08:23:48;18.50;59.10
11426;DHT22;5769;47.998;7.788;2022-12-18T08:26:15;18.50;59.10
11426;DHT22;5769;47.998;7.788;2022-12-18T08:28:42;18.50;59.40
11426;DHT22;5769;47.998;7.788;2022-12-18T08:31:10;18.50;59.20
11426;DHT22;5769;47.998;7.788;2022-12-18T08:33:38;18.50;59.30
11426;DHT22;5769;47.998;7.788;2022-12-18T08:36:06;18.50;59.30
11426;DHT22;5769;47.998;7.788;2022-12-18T08:38:33;18.50;59.20
11426;DHT22;5769;47.998;7.788;2022-12-18T08:41:00;18.50;59.10
11426;DHT22;5769;47.998;7.788;2022-12-18T08:43:27;18.50;59.20
11426;DHT22;5769;47.998;7.788;2022-12-18T08:46:13;18.50;59.30
11426;DHT22;5769;47.998;7.788;2022-12-18T08:48:39;18.50;59.10
11426;DHT22;5769;47.998;7.788;2022-12-18T08:51:06;18.50;59.10
11426;DHT22;5769;47.998;7.788;2022-12-18T08:53:35;18.50;59.10
11426;DHT22;5769;47.998;7.788;2022-12-18T08:56:02;18.50;59.10
11426;DHT22;5769;47.998;7.788;2022-12-18T08:58:29;18.50;59.30
11426;DHT22;5769;47.998;7.788;2022-12-18T09:00:59;18.50;59.30
11426;DHT22;5769;47.998;7.788;2022-12-18T09:03:28;18.50;59.10
11426;DHT22;5769;47.998;7.788;2022-12-18T09:05:55;18.50;59.10
11426;DHT22;5769;47.998;7.788;2022-12-18T09:08:22;18.50;59.10
11426;DHT22;5769;47.998;7.788;2022-12-18T09:10:50;18.50;59.10
11426;DHT22;5769;47.998;7.788;2022-12-18T09:13:17;18.50;59.20
11426;DHT22;5769;47.998;7.788;2022-12-18T09:15:45;18.50;59.10
11426;DHT22;5769;47.998;7.788;2022-12-18T09:18:13;18.50;59.00
11426;DHT22;5769;47.998;7.788;2022-12-18T09:20:41;18.50;59.10
11426;DHT22;5769;47.998;7.788;2022-12-18T09:23:08;18.50;59.10
11426;DHT22;5769;47.998;7.788;2022-12-18T09:25:36;18.50;59.10
11426;DHT22;5769;47.998;7.788;2022-12-18T09:28:04;18.50;59.00
11426;DHT22;5769;47.998;7.788;2022-12-18T09:30:31;18.50;59.20
11426;DHT22;5769;47.998;7.788;2022-12-18T09:32:59;18.50;59.20
11426;DHT22;5769;47.998;7.788;2022-12-18T09:35:26;18.50;59.10
11426;DHT22;5769;47.998;7.788;2022-12-18T09:37:54;18.50;59.20
11426;DHT22;5769;47.998;7.788;2022-12-18T09:40:24;18.50;59.20
11426;DHT22;5769;47.998;7.788;2022-12-18T09:42:54;18.50;59.10
11426;DHT22;5769;47.998;7.788;2022-12-18T09:45:22;18.50;59.10
11426;DHT22;5769;47.998;7.788;2022-12-18T09:47:51;18.50;59.20
11426;DHT22;5769;47.998;7.788;2022-12-18T09:50:24;18.50;59.20
11426;DHT22;5769;47.998;7.788;2022-12-18T09:52:56;18.50;59.40
11426;DHT22;5769;47.998;7.788;2022-12-18T09:55:29;18.50;59.40
11426;DHT22;5769;47.998;7.788;2022-12-18T09:58:05;18.50;59.50
11426;DHT22;5769;47.998;7.788;2022-12-18T10:00:33;18.50;59.20
11426;DHT22;5769;47.998;7.788;2022-12-18T10:03:08;18.50;59.30
11426;DHT22;5769;47.998;7.788;2022-12-18T10:05:39;18.50;59.30
11426;DHT22;5769;47.998;7.788;2022-12-18T10:08:13;18.50;59.30
11426;DHT22;5769;47.998;7.788;2022-12-18T10:10:46;18.50;59.30
11426;DHT22;5769;47.998;7.788;2022-12-18T10:13:23;18.50;59.20
11426;DHT22;5769;47.998;7.788;2022-12-18T10:16:05;18.50;59.30
11426;DHT22;5769;47.998;7.788;2022-12-18T10:18:45;18.50;59.20
11426;DHT22;5769;47.998;7.788;2022-12-18T10:21:18;18.50;59.30
11426;DHT22;5769;47.998;7.788;2022-12-18T10:23:54;18.50;59.40
11426;DHT22;5769;47.998;7.788;2022-12-18T10:26:22;18.50;59.40
11426;DHT22;5769;47.998;7.788;2022-12-18T10:28:51;18.50;59.20
11426;DHT22;5769;47.998;7.788;2022-12-18T10:31:21;18.50;59.30
11426;DHT22;5769;47.998;7.788;2022-12-18T10:33:48;18.50;59.30
11426;DHT22;5769;47.998;7.788;2022-12-18T10:36:14;18.50;59.30
11426;DHT22;5769;47.998;7.788;2022-12-18T10:38:41;18.50;59.30
11426;DHT22;5769;47.998;7.788;2022-12-18T10:41:24;18.50;59.30
11426;DHT22;5769;47.998;7.788;2022-12-18T10:44:11;18.50;59.30
11426;DHT22;5769;47.998;7.788;2022-12-18T10:46:38;18.50;59.30
11426;DHT22;5769;47.998;7.788;2022-12-18T10:49:05;18.50;59.30
11426;DHT22;5769;47.998;7.788;2022-12-18T10:51:44;18.50;59.40
11426;DHT22;5769;47.998;7.788;2022-12-18T10:54:14;18.50;59.30
11426;DHT22;5769;47.998;7.788;2022-12-18T10:56:44;18.50;59.40
11426;DHT22;5769;47.998;7.788;2022-12-18T10:59:12;18.50;59.30
11426;DHT22;5769;47.998;7.788;2022-12-18T11:01:47;18.50;59.30
11426;DHT22;5769;47.998;7.788;2022-12-18T11:04:18;18.50;59.30
11426;DHT22;5769;47.998;7.788;2022-12-18T11:06:53;18.50;59.20
11426;DHT22;5769;47.998;7.788;2022-12-18T11:09:22;18.40;59.40
11426;DHT22;5769;47.998;7.788;2022-12-18T11:11:51;18.40;59.50
11426;DHT22;5769;47.998;7.788;2022-12-18T11:14:22;18.40;59.40
11426;DHT22;5769;47.998;7.788;2022-12-18T11:16:51;18.50;59.40
11426;DHT22;5769;47.998;7.788;2022-12-18T11:19:29;18.50;59.50
11426;DHT22;5769;47.998;7.788;2022-12-18T11:21:58;18.50;59.40
11426;DHT22;5769;47.998;7.788;2022-12-18T11:24:28;18.50;59.40
11426;DHT22;5769;47.998;7.788;2022-12-18T11:26:58;18.50;59.40
11426;DHT22;5769;47.998;7.788;2022-12-18T11:29:32;18.50;59.40
11426;DHT22;5769;47.998;7.788;2022-12-18T11:32:22;18.50;59.50
11426;DHT22;5769;47.998;7.788;2022-12-18T11:34:55;18.50;59.30
11426;DHT22;5769;47.998;7.788;2022-12-18T11:37:24;18.50;59.40
11426;DHT22;5769;47.998;7.788;2022-12-18T11:39:55;18.50;59.30
11426;DHT22;5769;47.998;7.788;2022-12-18T11:42:27;18.50;59.30
11426;DHT22;5769;47.998;7.788;2022-12-18T11:45:01;18.50;59.50
11426;DHT22;5769;47.998;7.788;2022-12-18T11:47:38;18.50;59.70
11426;DHT22;5769;47.998;7.788;2022-12-18T11:50:12;18.50;59.40
11426;DHT22;5769;47.998;7.788;2022-12-18T11:52:40;18.50;59.70
11426;DHT22;5769;47.998;7.788;2022-12-18T11:55:12;18.50;59.70
11426;DHT22;5769;47.998;7.788;2022-12-18T11:57:47;18.50;59.80
11426;DHT22;5769;47.998;7.788;2022-12-18T12:00:19;18.50;59.70
11426;DHT22;5769;47.998;7.788;2022-12-18T12:03:15;18.50;59.50
11426;DHT22;5769;47.998;7.788;2022-12-18T12:05:49;18.50;59.40
11426;DHT22;5769;47.998;7.788;2022-12-18T12:08:22;18.50;59.30
11426;DHT22;5769;47.998;7.788;2022-12-18T12:10:59;18.40;59.30
11426;DHT22;5769;47.998;7.788;2022-12-18T12:13:43;18.50;59.50
11426;DHT22;5769;47.998;7.788;2022-12-18T12:16:17;18.50;60.00
11426;DHT22;5769;47.998;7.788;2022-12-18T12:18:56;18.50;59.60
11426;DHT22;5769;47.998;7.788;2022-12-18T12:21:33;18.50;59.60
11426;DHT22;5769;47.998;7.788;2022-12-18T12:24:09;18.50;59.50
11426;DHT22;5769;47.998;7.788;2022-12-18T12:26:43;18.50;59.60
11426;DHT22;5769;47.998;7.788;2022-12-18T12:29:25;18.50;59.40
11426;DHT22;5769;47.998;7.788;2022-12-18T12:32:04;18.40;59.40
11426;DHT22;5769;47.998;7.788;2022-12-18T12:34:38;18.40;59.50
11426;DHT22;5769;47.998;7.788;2022-12-18T12:37:19;18.50;59.40
11426;DHT22;5769;47.998;7.788;2022-12-18T12:39:51;18.50;59.50
11426;DHT22;5769;47.998;7.788;2022-12-18T12:42:26;18.50;59.60
11426;DHT22;5769;47.998;7.788;2022-12-18T12:45:28;18.50;59.60
11426;DHT22;5769;47.998;7.788;2022-12-18T12:47:57;18.40;59.50
11426;DHT22;5769;47.998;7.788;2022-12-18T12:50:26;18.40;59.50
11426;DHT22;5769;47.998;7.788;2022-12-18T12:52:54;18.50;59.50
11426;DHT22;5769;47.998;7.788;2022-12-18T12:55:24;18.50;59.40
11426;DHT22;5769;47.998;7.788;2022-12-18T12:57:59;18.50;59.70
11426;DHT22;5769;47.998;7.788;2022-12-18T13:00:30;18.50;59.60
11426;DHT22;5769;47.998;7.788;2022-12-18T13:03:06;18.50;59.50
11426;DHT22;5769;47.998;7.788;2022-12-18T13:05:42;18.50;59.50
11426;DHT22;5769;47.998;7.788;2022-12-18T13:08:12;18.40;59.50
11426;DHT22;5769;47.998;7.788;2022-12-18T13:10:47;18.40;59.40
11426;DHT22;5769;47.998;7.788;2022-12-18T13:13:15;18.50;59.40
11426;DHT22;5769;47.998;7.788;2022-12-18T13:15:44;18.40;59.40
11426;DHT22;5769;47.998;7.788;2022-12-18T13:18:19;18.40;59.60
11426;DHT22;5769;47.998;7.788;2022-12-18T13:20:49;18.50;59.60
11426;DHT22;5769;47.998;7.788;2022-12-18T13:23:26;18.50;59.50
11426;DHT22;5769;47.998;7.788;2022-12-18T13:25:54;18.50;59.40
11426;DHT22;5769;47.998;7.788;2022-12-18T13:28:22;18.50;59.20
11426;DHT22;5769;47.998;7.788;2022-12-18T13:30:54;18.50;59.50
11426;DHT22;5769;47.998;7.788;2022-12-18T13:33:41;18.40;59.40
11426;DHT22;5769;47.998;7.788;2022-12-18T13:36:27;18.40;59.40
11426;DHT22;5769;47.998;7.788;2022-12-18T13:39:21;18.40;59.40
11426;DHT22;5769;47.998;7.788;2022-12-18T13:41:49;18.40;59.40
11426;DHT22;5769;47.998;7.788;2022-12-18T13:44:25;18.50;59.70
11426;DHT22;5769;47.998;7.788;2022-12-18T13:46:56;18.40;59.40
11426;DHT22;5769;47.998;7.788;2022-12-18T13:49:25;18.50;59.70
11426;DHT22;5769;47.998;7.788;2022-12-18T13:51:54;18.40;59.60
11426;DHT22;5769;47.998;7.788;2022-12-18T13:54:25;18.40;59.60
11426;DHT22;5769;47.998;7.788;2022-12-18T13:56:54;18.50;59.60
11426;DHT22;5769;47.998;7.788;2022-12-18T13:59:23;18.40;59.40
11426;DHT22;5769;47.998;7.788;2022-12-18T14:01:53;18.40;59.50
11426;DHT22;5769;47.998;7.788;2022-12-18T14:04:24;18.50;59.30
11426;DHT22;5769;47.998;7.788;2022-12-18T14:06:54;18.40;59.40
11426;DHT22;5769;47.998;7.788;2022-12-18T14:09:25;18.50;59.40
11426;DHT22;5769;47.998;7.788;2022-12-18T14:11:52;18.50;59.40
11426;DHT22;5769;47.998;7.788;2022-12-18T14:14:41;18.40;59.50
11426;DHT22;5769;47.998;7.788;2022-12-18T14:17:10;18.40;59.40
11426;DHT22;5769;47.998;7.788;2022-12-18T14:19:44;18.50;59.40
11426;DHT22;5769;47.998;7.788;2022-12-18T14:22:16;18.40;59.70
11426;DHT22;5769;47.998;7.788;2022-12-18T14:24:43;18.50;59.70
11426;DHT22;5769;47.998;7.788;2022-12-18T14:27:22;18.60;59.70
11426;DHT22;5769;47.998;7.788;2022-12-18T14:29:49;18.90;59.50
11426;DHT22;5769;47.998;7.788;2022-12-18T14:32:17;19.00;59.30
11426;DHT22;5769;47.998;7.788;2022-12-18T14:34:46;19.10;59.20
11426;DHT22;5769;47.998;7.788;2022-12-18T14:37:16;19.30;59.10
11426;DHT22;5769;47.998;7.788;2022-12-18T14:39:56;19.40;58.90
11426;DHT22;5769;47.998;7.788;2022-12-18T14:42:24;19.50;58.90
11426;DHT22;5769;47.998;7.788;2022-12-18T14:47:54;19.50;58.70
11426;DHT22;5769;47.998;7.788;2022-12-18T14:50:22;19.60;59.00
11426;DHT22;5769;47.998;7.788;2022-12-18T14:52:49;19.50;58.70
11426;DHT22;5769;47.998;7.788;2022-12-18T14:55:16;19.50;58.80
11426;DHT22;5769;47.998;7.788;2022-12-18T14:57:43;19.50;58.90
11426;DHT22;5769;47.998;7.788;2022-12-18T15:00:16;19.50;58.80
11426;DHT22;5769;47.998;7.788;2022-12-18T15:02:43;19.50;59.00
11426;DHT22;5769;47.998;7.788;2022-12-18T15:05:17;19.50;59.00
11426;DHT22;5769;47.998;7.788;2022-12-18T15:07:47;19.40;58.90
11426;DHT22;5769;47.998;7.788;2022-12-18T15:10:16;19.50;59.00
11426;DHT22;5769;47.998;7.788;2022-12-18T15:12:44;19.40;59.00
11426;DHT22;5769;47.998;7.788;2022-12-18T15:15:45;19.40;59.10
11426;DHT22;5769;47.998;7.788;2022-12-18T15:18:13;19.40;59.20
11426;DHT22;5769;47.998;7.788;2022-12-18T15:20:44;19.40;59.20
11426;DHT22;5769;47.998;7.788;2022-12-18T15:23:17;19.30;59.10
11426;DHT22;5769;47.998;7.788;2022-12-18T15:25:45;19.30;58.90
11426;DHT22;5769;47.998;7.788;2022-12-18T15:28:19;19.30;59.00
11426;DHT22;5769;47.998;7.788;2022-12-18T15:31:05;19.30;59.00
11426;DHT22;5769;47.998;7.788;2022-12-18T15:33:34;19.30;59.10
11426;DHT22;5769;47.998;7.788;2022-12-18T15:36:03;19.30;59.00
11426;DHT22;5769;47.998;7.788;2022-12-18T15:38:32;19.30;59.10
11426;DHT22;5769;47.998;7.788;2022-12-18T15:41:01;19.30;59.00
11426;DHT22;5769;47.998;7.788;2022-12-18T15:43:37;19.30;59.20
11426;DHT22;5769;47.998;7.788;2022-12-18T15:46:04;19.50;59.40
11426;DHT22;5769;47.998;7.788;2022-12-18T15:48:33;19.40;60.00
11426;DHT22;5769;47.998;7.788;2022-12-18T15:51:01;19.40;59.60
11426;DHT22;5769;47.998;7.788;2022-12-18T15:53:32;19.50;59.70
11426;DHT22;5769;47.998;7.788;2022-12-18T15:55:59;19.50;59.80
11426;DHT22;5769;47.998;7.788;2022-12-18T15:58:44;19.60;59.90
11426;DHT22;5769;47.998;7.788;2022-12-18T16:01:10;19.60;60.00
11426;DHT22;5769;47.998;7.788;2022-12-18T16:03:37;19.60;60.10
11426;DHT22;5769;47.998;7.788;2022-12-18T16:06:04;19.60;59.90
11426;DHT22;5769;47.998;7.788;2022-12-18T16:08:32;19.60;59.60